Time;durP1;ratioP1;P1;durP2;ratioP2;P2;SDS_P1;SDS_P2;PMS_P1;PMS_P2;Temp;Humidity;BMP_temperature;BMP_pressure;BME280_temperature;BME280_humidity;BME280_pressure;Samples;Min_cycle;Max_cycle;Signal;HPM_P1;HPM_P2
2023/10/15 00:00:19;;;;;;;;;;;;;;;11.37;47.95;100553.16;4993604;27;101562;-66
2023/10/15 00:02:47;;;;;;;;;;;;;;;11.34;47.82;100549.09;5006133;27;97944;-66
2023/10/15 00:05:19;;;;;;;;;;;;;;;11.34;47.77;100556.38;4961470;27;99340;-65
2023/10/15 00:07:47;;;;;;;;;;;;;;;11.31;47.82;100555.81;4997811;27;112808;-66
2023/10/15 00:10:14;;;;;;;;;;;;;;;11.31;47.96;100552.31;5011684;27;98715;-66
2023/10/15 00:12:43;;;;;;;;;;;;;;;11.29;47.90;100552.59;4995964;27;97944;-66
2023/10/15 00:15:20;;;;;;;;;;;;;;;11.29;47.66;100544.50;5010319;27;98206;-65
2023/10/15 00:17:52;;;;;;;;;;;;;;;11.30;47.74;100554.22;4983613;27;98691;-65
2023/10/15 00:20:20;;;;;;;;;;;;;;;11.28;47.73;100548.28;5010343;27;99641;-65
2023/10/15 00:22:48;;;;;;;;;;;;;;;11.29;47.78;100546.41;4998837;27;99169;-66
2023/10/15 00:25:14;;;;;;;;;;;;;;;11.28;47.92;100548.28;4979690;27;98119;-65
2023/10/15 00:27:41;;;;;;;;;;;;;;;11.27;47.32;100548.53;4965639;27;98386;-66
2023/10/15 00:30:12;;;;;;;;;;;;;;;11.26;47.55;100546.94;4999329;27;99059;-66
2023/10/15 00:32:42;;;;;;;;;;;;;;;11.25;47.67;100542.63;4998080;27;98634;-65
2023/10/15 00:35:13;;;;;;;;;;;;;;;11.23;47.78;100545.56;4983887;27;98567;-66
2023/10/15 00:37:41;;;;;;;;;;;;;;;11.22;47.62;100545.84;4999729;27;98182;-66
2023/10/15 00:40:16;;;;;;;;;;;;;;;11.18;47.63;100540.19;4978921;27;98616;-66
2023/10/15 00:42:45;;;;;;;;;;;;;;;11.15;47.93;100542.63;4994553;27;99289;-65
2023/10/15 00:45:19;;;;;;;;;;;;;;;11.12;48.11;100541.28;4994165;27;99372;-66
2023/10/15 00:48:00;;;;;;;;;;;;;;;11.10;47.45;100548.81;4985079;27;98105;-65
2023/10/15 00:50:48;;;;;;;;;;;;;;;11.05;47.94;100544.22;5014446;27;99021;-65
2023/10/15 00:53:21;;;;;;;;;;;;;;;11.01;47.94;100545.84;4985849;27;100493;-66
2023/10/15 00:56:03;;;;;;;;;;;;;;;10.99;47.66;100553.38;4982699;27;100445;-65
2023/10/15 01:03:53;;;;;;;;;;;;;;;10.90;47.87;100557.69;5001254;27;98683;-65
2023/10/15 01:06:29;;;;;;;;;;;;;;;10.86;47.96;100562.00;5017264;27;98517;-66
2023/10/15 01:08:58;;;;;;;;;;;;;;;10.84;48.01;100566.03;5012999;27;97990;-65
2023/10/15 01:11:31;;;;;;;;;;;;;;;10.80;47.66;100568.44;4967311;27;99731;-65
2023/10/15 01:13:57;;;;;;;;;;;;;;;10.76;48.01;100561.97;5000387;27;98424;-65
2023/10/15 01:16:27;;;;;;;;;;;;;;;10.74;47.79;100556.84;5009433;27;98166;-65
2023/10/15 01:19:14;;;;;;;;;;;;;;;10.72;47.59;100555.47;5002615;27;99527;-65
2023/10/15 01:21:57;;;;;;;;;;;;;;;10.70;48.02;100555.75;4987485;27;99769;-65
2023/10/15 01:24:33;;;;;;;;;;;;;;;10.66;47.70;100549.28;4982048;27;98771;-65
2023/10/15 01:27:04;;;;;;;;;;;;;;;10.65;48.14;100549.53;4982940;27;98261;-65
2023/10/15 01:29:33;;;;;;;;;;;;;;;10.64;47.82;100547.91;4985004;27;98905;-65
2023/10/15 01:32:01;;;;;;;;;;;;;;;10.60;47.61;100547.63;5009778;27;99452;-65
2023/10/15 01:34:29;;;;;;;;;;;;;;;10.61;48.10;100551.13;4999716;27;99816;-65
2023/10/15 01:36:57;;;;;;;;;;;;;;;10.57;47.95;100554.38;4992966;27;99788;-65
2023/10/15 01:39:38;;;;;;;;;;;;;;;10.58;48.03;100555.19;4977402;27;99366;-65
2023/10/15 01:42:06;;;;;;;;;;;;;;;10.56;48.34;100555.44;4983552;27;101382;-65
2023/10/15 01:44:33;;;;;;;;;;;;;;;10.54;47.68;100556.81;4985088;27;98872;-65
2023/10/15 01:49:32;;;;;;;;;;;;;;;10.53;48.01;100557.84;4986144;27;98160;-65
2023/10/15 01:52:08;;;;;;;;;;;;;;;10.50;47.83;100556.50;5015635;27;100223;-65
2023/10/15 01:54:37;;;;;;;;;;;;;;;10.49;47.94;100557.59;4987629;27;99479;-65
2023/10/15 01:57:06;;;;;;;;;;;;;;;10.46;47.69;100560.81;4994628;27;99981;-65
2023/10/15 01:59:42;;;;;;;;;;;;;;;10.46;48.10;100562.69;4999959;27;98989;-65
2023/10/15 02:02:13;;;;;;;;;;;;;;;10.45;47.66;100552.97;4967321;27;98357;-64
2023/10/15 02:04:47;;;;;;;;;;;;;;;10.43;48.06;100555.13;4994947;27;99573;-65
2023/10/15 02:07:17;;;;;;;;;;;;;;;10.38;47.98;100555.13;4968218;27;100399;-66
2023/10/15 02:09:44;;;;;;;;;;;;;;;10.37;48.12;100562.38;4995425;27;98184;-65
2023/10/15 02:12:18;;;;;;;;;;;;;;;10.35;48.09;100555.66;5013240;27;100709;-65
2023/10/15 02:14:44;;;;;;;;;;;;;;;10.34;47.95;100543.25;4983601;27;98662;-65
2023/10/15 02:17:13;;;;;;;;;;;;;;;10.31;47.88;100547.28;4974712;27;98614;-65
2023/10/15 02:19:42;;;;;;;;;;;;;;;10.28;47.80;100543.22;4961993;27;98348;-65
2023/10/15 02:22:15;;;;;;;;;;;;;;;10.27;48.43;100538.91;4967558;27;99453;-65
2023/10/15 02:24:48;;;;;;;;;;;;;;;10.26;47.77;100537.28;4997842;27;99388;-65
2023/10/15 02:27:30;;;;;;;;;;;;;;;10.24;48.04;100539.41;4983492;27;99586;-66
2023/10/15 02:29:56;;;;;;;;;;;;;;;10.23;48.38;100543.16;4980892;27;99338;-65
2023/10/15 02:32:30;;;;;;;;;;;;;;;10.22;47.97;100554.22;4977791;27;98344;-65
2023/10/15 02:35:02;;;;;;;;;;;;;;;10.21;48.11;100549.88;4965866;27;98522;-65
2023/10/15 02:37:29;;;;;;;;;;;;;;;10.19;47.74;100554.75;5008427;27;98757;-65
2023/10/15 02:39:59;;;;;;;;;;;;;;;10.17;48.51;100556.88;4999306;27;98532;-65
2023/10/15 02:42:31;;;;;;;;;;;;;;;10.14;47.92;100558.22;4962654;27;100450;-65
2023/10/15 02:44:58;;;;;;;;;;;;;;;10.14;48.09;100558.22;4983806;27;98385;-66
2023/10/15 02:50:18;;;;;;;;;;;;;;;10.12;48.02;100560.34;4999601;27;98459;-65
2023/10/15 02:52:45;;;;;;;;;;;;;;;10.09;48.02;100558.97;4995267;27;98035;-65
2023/10/15 02:55:14;;;;;;;;;;;;;;;10.10;48.40;100565.22;5012457;27;98858;-65
2023/10/15 02:57:43;;;;;;;;;;;;;;;10.10;47.91;100567.91;4985907;27;98215;-65
2023/10/15 03:00:14;;;;;;;;;;;;;;;10.09;47.95;100574.34;4999996;27;98387;-65
2023/10/15 03:02:44;;;;;;;;;;;;;;;10.08;48.28;100572.72;5003088;27;98220;-65
2023/10/15 03:05:14;;;;;;;;;;;;;;;10.06;48.31;100574.84;4978896;27;97951;-66
2023/10/15 03:07:44;;;;;;;;;;;;;;;10.07;48.37;100577.31;4979096;27;99514;-65
2023/10/15 03:10:23;;;;;;;;;;;;;;;10.06;48.01;100572.16;5001607;27;99510;-65
2023/10/15 03:12:49;;;;;;;;;;;;;;;10.05;48.14;100578.63;4985331;27;98730;-65
2023/10/15 03:15:17;;;;;;;;;;;;;;;10.01;47.85;100575.63;4980298;27;102883;-65
2023/10/15 03:17:44;;;;;;;;;;;;;;;9.98;48.15;100576.19;5001101;27;98342;-65
2023/10/15 03:22:51;;;;;;;;;;;;;;;9.97;48.30;100577.22;4984903;27;107030;-65
2023/10/15 03:25:19;;;;;;;;;;;;;;;9.95;48.01;100576.69;4983378;27;98079;-65
2023/10/15 03:27:46;;;;;;;;;;;;;;;9.92;47.99;100582.59;5006336;27;98801;-65
2023/10/15 03:30:13;;;;;;;;;;;;;;;9.91;47.81;100575.59;4996722;27;98442;-65
2023/10/15 03:32:45;;;;;;;;;;;;;;;9.91;47.81;100580.19;4987235;27;98794;-65
2023/10/15 03:35:17;;;;;;;;;;;;;;;9.86;47.66;100575.53;4994493;27;99144;-65
2023/10/15 03:37:47;;;;;;;;;;;;;;;9.82;48.29;100582.53;4994476;27;98249;-65
2023/10/15 03:41:10;;;;;;;;;;;;;;;9.77;48.26;100569.84;4998214;27;98618;-65
2023/10/15 03:43:04;;;;;;;;;;;;;;;9.73;48.24;100576.00;4999734;27;98318;-65
2023/10/15 03:45:33;;;;;;;;;;;;;;;9.68;47.94;100575.97;4994768;27;97928;-65
2023/10/15 03:48:00;;;;;;;;;;;;;;;9.65;48.04;100576.50;4978590;27;99626;-65
2023/10/15 03:50:29;;;;;;;;;;;;;;;9.61;47.96;100578.88;4994033;27;98616;-65
2023/10/15 03:52:56;;;;;;;;;;;;;;;9.57;48.03;100578.59;4977480;27;98224;-65
2023/10/15 03:55:24;;;;;;;;;;;;;;;9.54;48.32;100579.09;4980265;27;98407;-66
2023/10/15 03:57:53;;;;;;;;;;;;;;;9.54;48.33;100572.91;4967092;27;98178;-65
2023/10/15 04:00:35;;;;;;;;;;;;;;;9.51;48.33;100579.63;4963224;27;99446;-65
2023/10/15 04:03:16;;;;;;;;;;;;;;;9.51;48.70;100570.72;4996672;27;98860;-65
2023/10/15 04:05:50;;;;;;;;;;;;;;;9.50;48.36;100572.59;5000512;27;98097;-65
2023/10/15 04:08:18;;;;;;;;;;;;;;;9.49;48.27;100568.31;4980987;27;100179;-65
2023/10/15 04:10:57;;;;;;;;;;;;;;;9.48;48.14;100568.56;4983871;27;98527;-65
2023/10/15 04:13:26;;;;;;;;;;;;;;;9.46;47.94;100566.13;4967549;27;98003;-65
2023/10/15 04:15:55;;;;;;;;;;;;;;;9.45;48.01;100569.06;4998730;27;100150;-65
2023/10/15 04:18:24;;;;;;;;;;;;;;;9.43;48.82;100572.03;4962544;27;98747;-65
2023/10/15 04:20:52;;;;;;;;;;;;;;;9.40;48.44;100569.84;4982662;27;98339;-65
2023/10/15 04:23:30;;;;;;;;;;;;;;;9.38;48.01;100565.78;4965606;27;99108;-65
2023/10/15 04:26:07;;;;;;;;;;;;;;;9.33;48.29;100570.06;4967422;27;98413;-65
2023/10/15 04:28:34;;;;;;;;;;;;;;;9.31;48.43;100566.81;4995461;27;98712;-64
2023/10/15 04:31:09;;;;;;;;;;;;;;;9.30;48.15;100572.44;4979052;27;98233;-65
2023/10/15 04:33:41;;;;;;;;;;;;;;;9.29;47.78;100565.44;4985325;27;99141;-65
2023/10/15 04:36:09;;;;;;;;;;;;;;;9.26;48.30;100563.25;4983225;27;99562;-65
2023/10/15 04:38:36;;;;;;;;;;;;;;;9.24;48.79;100565.41;4981280;27;99147;-66
2023/10/15 04:41:04;;;;;;;;;;;;;;;9.23;48.57;100567.25;5000536;27;99848;-66
2023/10/15 04:43:41;;;;;;;;;;;;;;;9.21;48.25;100568.59;4994174;27;98122;-65
2023/10/15 04:46:07;;;;;;;;;;;;;;;9.20;48.03;100570.50;4981672;27;98512;-65
2023/10/15 04:48:36;;;;;;;;;;;;;;;9.17;47.87;100576.38;4982276;27;98729;-65
2023/10/15 04:51:12;;;;;;;;;;;;;;;9.15;47.96;100573.13;4981063;27;100135;-65
2023/10/15 04:53:48;;;;;;;;;;;;;;;9.15;47.96;100575.00;4981193;27;99644;-65
2023/10/15 04:56:15;;;;;;;;;;;;;;;9.12;48.14;100573.66;5001202;27;98384;-65
2023/10/15 04:58:42;;;;;;;;;;;;;;;9.13;47.84;100577.16;4993945;27;98150;-65
2023/10/15 05:01:09;;;;;;;;;;;;;;;9.11;47.93;100574.69;4975129;27;98469;-65
2023/10/15 05:03:39;;;;;;;;;;;;;;;9.08;48.37;100569.84;4967716;27;98486;-65
2023/10/15 05:06:06;;;;;;;;;;;;;;;9.06;48.22;100575.47;4984684;27;98232;-65
2023/10/15 05:08:35;;;;;;;;;;;;;;;9.04;48.70;100574.91;4968035;27;99735;-65
2023/10/15 05:11:01;;;;;;;;;;;;;;;9.04;48.35;100574.91;4998434;27;99126;-65
2023/10/15 05:13:31;;;;;;;;;;;;;;;9.03;48.22;100580.53;5017779;27;99556;-65
2023/10/15 05:15:58;;;;;;;;;;;;;;;9.03;48.08;100573.28;4986960;27;98403;-65
2023/10/15 05:18:29;;;;;;;;;;;;;;;9.01;48.20;100591.56;4997912;27;98993;-66
2023/10/15 05:20:56;;;;;;;;;;;;;;;9.02;47.95;100585.09;4974310;27;98119;-65
2023/10/15 05:23:23;;;;;;;;;;;;;;;9.02;47.93;100589.66;4965988;27;99587;-65
2023/10/15 05:25:52;;;;;;;;;;;;;;;9.02;48.29;100585.09;4983898;27;98389;-65
2023/10/15 05:28:19;;;;;;;;;;;;;;;9.02;48.48;100587.78;4981728;27;98077;-65
2023/10/15 05:30:45;;;;;;;;;;;;;;;9.02;48.31;100581.59;4981111;27;98320;-65
2023/10/15 05:33:13;;;;;;;;;;;;;;;9.03;48.58;100588.59;4960038;27;98328;-65
2023/10/15 05:35:49;;;;;;;;;;;;;;;9.02;48.08;100587.78;4964390;27;99105;-65
2023/10/15 05:38:16;;;;;;;;;;;;;;;9.02;48.53;100590.47;5000201;27;98409;-65
2023/10/15 05:40:44;;;;;;;;;;;;;;;9.03;48.30;100588.59;4983625;27;99024;-66
2023/10/15 05:43:11;;;;;;;;;;;;;;;9.05;48.51;100586.47;4982035;27;99332;-65
2023/10/15 05:45:37;;;;;;;;;;;;;;;9.05;47.95;100586.47;4984712;27;99278;-65
2023/10/15 05:48:04;;;;;;;;;;;;;;;9.04;48.38;100585.69;5010586;27;99022;-65
2023/10/15 05:50:32;;;;;;;;;;;;;;;9.05;48.56;100589.16;4985244;27;98782;-65
2023/10/15 05:52:58;;;;;;;;;;;;;;;9.05;47.93;100592.66;5016551;27;99824;-65
2023/10/15 05:55:24;;;;;;;;;;;;;;;9.07;47.93;100601.28;5000912;27;97970;-65
2023/10/15 05:57:50;;;;;;;;;;;;;;;9.08;48.24;100597.53;4997030;27;98720;-65
2023/10/15 06:00:26;;;;;;;;;;;;;;;9.11;48.56;100601.59;4995822;27;97892;-65
2023/10/15 06:02:53;;;;;;;;;;;;;;;9.14;48.50;100606.47;4980698;27;100021;-65
2023/10/15 06:05:19;;;;;;;;;;;;;;;9.16;48.36;100601.66;4968174;27;99432;-65
2023/10/15 06:07:48;;;;;;;;;;;;;;;9.19;48.36;100611.06;4981025;27;98809;-65
2023/10/15 06:10:16;;;;;;;;;;;;;;;9.21;48.38;100604.38;4998773;27;98076;-65
2023/10/15 06:12:43;;;;;;;;;;;;;;;9.21;48.27;100603.56;4992553;27;98059;-65
2023/10/15 06:15:11;;;;;;;;;;;;;;;9.27;48.14;100608.72;4985543;27;98432;-65
2023/10/15 06:17:38;;;;;;;;;;;;;;;9.36;47.80;100610.97;4998011;27;98379;-65
2023/10/15 06:20:14;;;;;;;;;;;;;;;9.46;48.24;100602.97;4997996;27;98630;-65
2023/10/15 06:22:43;;;;;;;;;;;;;;;9.59;47.78;100606.06;4965556;27;98753;-65
2023/10/15 06:25:11;;;;;;;;;;;;;;;9.77;48.27;100610.22;4997237;27;99009;-64
2023/10/15 06:27:41;;;;;;;;;;;;;;;9.90;47.71;100610.84;4993970;27;98513;-65
2023/10/15 06:30:16;;;;;;;;;;;;;;;10.01;48.25;100612.53;4990165;27;98689;-65
2023/10/15 06:32:43;;;;;;;;;;;;;;;10.12;47.75;100613.41;4978678;27;98244;-66
2023/10/15 06:35:18;;;;;;;;;;;;;;;10.17;47.84;100618.81;4995299;27;98521;-65
2023/10/15 06:37:44;;;;;;;;;;;;;;;10.19;47.56;100620.19;4984132;27;100348;-65
2023/10/15 06:40:18;;;;;;;;;;;;;;;10.21;47.79;100618.03;4998032;27;115631;-66
2023/10/15 06:42:46;;;;;;;;;;;;;;;10.23;48.16;100631.28;4996327;27;98273;-65
2023/10/15 06:45:19;;;;;;;;;;;;;;;10.27;48.03;100627.81;4979778;27;98283;-65
2023/10/15 06:47:45;;;;;;;;;;;;;;;10.31;47.79;100634.31;4992127;27;98414;-66
2023/10/15 06:50:11;;;;;;;;;;;;;;;10.38;47.92;100627.88;4963839;27;99443;-65
2023/10/15 06:52:39;;;;;;;;;;;;;;;10.47;47.65;100637.09;4994033;27;113850;-65
2023/10/15 06:55:10;;;;;;;;;;;;;;;10.52;47.52;100627.13;4964019;27;98334;-66
2023/10/15 06:57:40;;;;;;;;;;;;;;;10.59;48.17;100634.16;4965716;27;98293;-66
2023/10/15 07:00:10;;;;;;;;;;;;;;;10.63;47.94;100640.66;4993988;27;99553;-66
2023/10/15 07:02:37;;;;;;;;;;;;;;;10.66;47.63;100638.25;5004964;27;97942;-69
2023/10/15 07:05:04;;;;;;;;;;;;;;;10.73;47.58;100638.00;4980448;27;98432;-66
2023/10/15 07:07:30;;;;;;;;;;;;;;;10.78;48.09;100636.13;5009862;27;98300;-68
2023/10/15 07:09:56;;;;;;;;;;;;;;;10.81;48.02;100645.59;4994954;27;98334;-67
2023/10/15 07:12:25;;;;;;;;;;;;;;;10.83;47.85;100648.81;4975339;27;103639;-69
2023/10/15 07:14:51;;;;;;;;;;;;;;;10.84;47.47;100636.16;5012440;27;98410;-68
2023/10/15 07:17:17;;;;;;;;;;;;;;;10.86;48.01;100642.91;4991381;27;99874;-66
2023/10/15 07:19:45;;;;;;;;;;;;;;;10.87;47.76;100644.53;4127441;27;10000255;-66
2023/10/15 07:22:11;;;;;;;;;;;;;;;10.86;47.96;100652.88;4973791;27;101813;-66
2023/10/15 07:24:37;;;;;;;;;;;;;;;10.85;47.89;100653.97;4983475;27;101275;-65
2023/10/15 07:27:08;;;;;;;;;;;;;;;10.86;47.61;100650.19;4990625;27;102154;-66
2023/10/15 07:29:39;;;;;;;;;;;;;;;10.90;47.89;100651.28;4979282;27;98641;-67
2023/10/15 07:32:07;;;;;;;;;;;;;;;11.05;47.52;100648.63;4976551;27;98342;-66
2023/10/15 07:34:33;;;;;;;;;;;;;;;11.37;47.04;100653.81;4992759;27;100128;-66
2023/10/15 07:37:02;;;;;;;;;;;;;;;11.78;46.93;100651.94;4997476;27;98326;-66
2023/10/15 07:39:31;;;;;;;;;;;;;;;11.87;46.72;100644.16;4978621;27;98604;-66
2023/10/15 07:42:00;;;;;;;;;;;;;;;11.94;47.02;100639.25;4979082;27;98090;-67
2023/10/15 07:44:27;;;;;;;;;;;;;;;12.01;46.78;100637.09;4979844;27;98307;-66
2023/10/15 07:46:54;;;;;;;;;;;;;;;12.02;46.90;100637.91;4978254;27;98570;-66
2023/10/15 07:49:24;;;;;;;;;;;;;;;12.01;47.20;100637.09;4976832;27;98753;-66
2023/10/15 07:51:54;;;;;;;;;;;;;;;12.03;47.06;100645.75;4993733;27;98999;-66
2023/10/15 07:54:21;;;;;;;;;;;;;;;12.09;47.07;100657.34;4991944;27;98378;-66
2023/10/15 07:56:46;;;;;;;;;;;;;;;12.02;47.13;100644.13;4993794;27;98916;-66
2023/10/15 07:59:14;;;;;;;;;;;;;;;11.97;47.32;100646.03;4974696;27;109055;-66
2023/10/15 08:01:43;;;;;;;;;;;;;;;11.94;47.37;100646.56;4974248;27;98180;-66
2023/10/15 08:04:10;;;;;;;;;;;;;;;11.93;47.38;100637.66;4959703;27;98055;-66
2023/10/15 08:06:38;;;;;;;;;;;;;;;11.88;47.46;100640.38;4991874;27;98697;-67
2023/10/15 08:09:09;;;;;;;;;;;;;;;11.92;47.23;100652.25;4977263;27;103298;-66
2023/10/15 08:11:36;;;;;;;;;;;;;;;11.93;47.47;100648.44;4996671;27;98087;-66
2023/10/15 08:14:05;;;;;;;;;;;;;;;11.94;47.38;100643.84;4990618;27;98996;-65
2023/10/15 08:16:33;;;;;;;;;;;;;;;11.90;47.43;100650.88;4982301;27;98201;-66
2023/10/15 08:18:59;;;;;;;;;;;;;;;11.80;47.56;100657.09;4980006;27;98061;-66
2023/10/15 08:21:26;;;;;;;;;;;;;;;11.70;47.83;100659.78;4977834;27;98191;-66
2023/10/15 08:23:54;;;;;;;;;;;;;;;11.62;47.77;100669.22;4992895;27;98437;-67
2023/10/15 08:26:23;;;;;;;;;;;;;;;11.52;47.87;100667.34;4979742;27;98182;-67
2023/10/15 08:28:51;;;;;;;;;;;;;;;11.46;47.68;100664.88;4978050;27;99136;-67
2023/10/15 08:31:20;;;;;;;;;;;;;;;11.40;47.58;100671.38;4993662;27;98166;-66
2023/10/15 08:33:47;;;;;;;;;;;;;;;11.40;47.90;100668.69;4958955;27;98634;-66
2023/10/15 08:36:12;;;;;;;;;;;;;;;11.45;47.89;100666.78;5009662;27;98128;-66
2023/10/15 08:38:39;;;;;;;;;;;;;;;11.47;47.73;100661.91;4990069;27;128454;-66
2023/10/15 08:41:10;;;;;;;;;;;;;;;11.44;47.85;100664.38;4954873;27;98458;-67
2023/10/15 08:43:40;;;;;;;;;;;;;;;11.40;47.84;100672.19;4994532;27;99552;-66
2023/10/15 08:46:09;;;;;;;;;;;;;;;11.37;47.88;100666.50;4990308;27;98693;-67
2023/10/15 08:48:37;;;;;;;;;;;;;;;11.35;47.85;100674.03;4972812;27;100526;-66
2023/10/15 08:51:05;;;;;;;;;;;;;;;11.32;47.82;100675.41;5007380;27;98705;-66
2023/10/15 08:53:32;;;;;;;;;;;;;;;11.28;47.74;100677.03;4975716;27;97986;-67
2023/10/15 08:56:01;;;;;;;;;;;;;;;11.23;47.83;100677.78;4979371;27;98203;-66
2023/10/15 08:58:27;;;;;;;;;;;;;;;11.17;48.03;100680.75;4978780;27;98567;-66
2023/10/15 09:01:00;;;;;;;;;;;;;;;11.14;48.26;100687.50;4991716;27;100048;-67
2023/10/15 09:03:26;;;;;;;;;;;;;;;11.12;47.91;100686.97;4975525;27;99082;-66
2023/10/15 09:05:52;;;;;;;;;;;;;;;11.18;47.57;100690.47;5005946;27;100782;-66
2023/10/15 09:08:23;;;;;;;;;;;;;;;11.24;47.71;100686.72;4963332;27;100053;-67
2023/10/15 09:10:52;;;;;;;;;;;;;;;11.33;47.72;100689.72;4954637;27;101376;-66
2023/10/15 09:13:21;;;;;;;;;;;;;;;11.45;47.37;100682.97;4940195;27;99839;-66
2023/10/15 09:15:52;;;;;;;;;;;;;;;11.55;47.41;100684.88;5005011;27;98888;-66
2023/10/15 09:18:18;;;;;;;;;;;;;;;11.62;47.31;100681.91;4995869;27;98179;-66
2023/10/15 09:20:47;;;;;;;;;;;;;;;11.82;47.26;100683.81;4998850;27;110771;-67
2023/10/15 09:23:14;;;;;;;;;;;;;;;12.08;47.10;100679.25;4980911;27;98416;-64
2023/10/15 09:25:41;;;;;;;;;;;;;;;12.44;46.62;100677.28;4998184;27;98531;-65
2023/10/15 09:28:07;;;;;;;;;;;;;;;12.95;46.08;100677.91;4952801;27;98597;-66
2023/10/15 09:30:33;;;;;;;;;;;;;;;12.88;46.24;100671.97;4980796;27;124756;-66
2023/10/15 09:32:59;;;;;;;;;;;;;;;12.92;46.35;100681.16;4977583;27;99361;-66
2023/10/15 09:35:25;;;;;;;;;;;;;;;13.03;46.33;100671.91;4982869;27;98863;-65
2023/10/15 09:37:54;;;;;;;;;;;;;;;13.48;46.08;100675.47;4997994;27;98272;-66
2023/10/15 09:40:24;;;;;;;;;;;;;;;16.16;42.96;100661.91;4963908;27;98486;-67
2023/10/15 09:42:53;;;;;;;;;;;;;;;18.38;41.44;100648.16;4965087;27;98419;-66
2023/10/15 09:45:23;;;;;;;;;;;;;;;19.02;41.59;100660.56;4962416;27;99308;-66
2023/10/15 09:47:57;;;;;;;;;;;;;;;17.72;43.60;100673.56;4982316;27;99391;-66
2023/10/15 09:50:38;;;;;;;;;;;;;;;17.18;44.46;100676.22;5012906;27;99626;-66
2023/10/15 09:53:16;;;;;;;;;;;;;;;16.51;45.25;100681.38;4996479;27;98183;-66
2023/10/15 09:55:45;;;;;;;;;;;;;;;15.76;45.93;100685.13;4995951;27;100283;-65
2023/10/15 09:58:12;;;;;;;;;;;;;;;15.29;46.49;100681.47;4984495;27;98229;-66
2023/10/15 10:03:48;;;;;;;;;;;;;;;14.66;46.83;100677.94;4993988;27;98236;-66
2023/10/15 10:06:40;;;;;;;;;;;;;;;14.56;46.55;100679.97;4983781;27;98001;-66
2023/10/15 10:09:36;;;;;;;;;;;;;;;15.23;45.61;100676.09;5007907;27;99596;-65
2023/10/15 10:12:19;;;;;;;;;;;;;;;15.56;45.14;100672.63;5005957;27;98096;-67
2023/10/15 10:14:56;;;;;;;;;;;;;;;16.12;44.57;100680.72;4999405;27;98590;-66
2023/10/15 10:17:22;;;;;;;;;;;;;;;18.81;41.90;100658.44;4992241;27;101332;-66
2023/10/15 10:19:52;;;;;;;;;;;;;;;21.53;39.11;100654.22;4996932;27;100017;-67
2023/10/15 10:22:22;;;;;;;;;;;;;;;21.87;39.56;100662.47;4992246;27;99956;-65
2023/10/15 10:24:50;;;;;;;;;;;;;;;21.96;39.84;100671.41;4981622;27;98948;-66
2023/10/15 10:27:17;;;;;;;;;;;;;;;20.84;41.63;100674.72;4963417;27;98754;-67
2023/10/15 10:29:49;;;;;;;;;;;;;;;19.44;43.47;100686.31;4976661;27;99495;-65
2023/10/15 10:32:19;;;;;;;;;;;;;;;20.05;42.53;100675.34;4991299;27;98335;-67
2023/10/15 10:34:46;;;;;;;;;;;;;;;19.36;43.23;100674.25;4961665;27;98146;-68
2023/10/15 10:37:23;;;;;;;;;;;;;;;18.45;44.40;100666.00;4976756;27;98277;-67
2023/10/15 10:39:50;;;;;;;;;;;;;;;18.03;44.56;100673.66;4996325;27;98778;-66
2023/10/15 10:42:24;;;;;;;;;;;;;;;18.34;44.07;100655.34;4978119;27;98483;-65
2023/10/15 10:44:50;;;;;;;;;;;;;;;19.15;43.04;100651.44;4994233;27;99375;-66
2023/10/15 10:47:19;;;;;;;;;;;;;;;19.30;42.80;100655.63;5012142;27;99249;-66
2023/10/15 10:49:58;;;;;;;;;;;;;;;19.72;42.36;100650.47;4973356;27;99818;-65
2023/10/15 10:52:34;;;;;;;;;;;;;;;18.93;43.70;100659.75;4996326;27;99719;-67
2023/10/15 10:55:34;;;;;;;;;;;;;;;18.42;44.21;100650.25;4965877;27;98475;-67
2023/10/15 10:58:07;;;;;;;;;;;;;;;17.78;44.97;100654.09;5008640;27;99332;-66
2023/10/15 11:00:37;;;;;;;;;;;;;;;17.12;45.51;100661.06;4979274;27;98539;-67
2023/10/15 11:03:08;;;;;;;;;;;;;;;16.58;45.95;100652.63;4962695;27;98220;-67
2023/10/15 11:05:34;;;;;;;;;;;;;;;16.10;46.25;100666.59;4981658;27;98265;-67
2023/10/15 11:08:03;;;;;;;;;;;;;;;15.60;46.80;100650.03;4980728;27;98379;-66
2023/10/15 11:10:31;;;;;;;;;;;;;;;15.17;46.94;100669.16;4966354;27;100043;-65
2023/10/15 11:12:58;;;;;;;;;;;;;;;14.76;47.30;100677.00;4955525;27;98283;-66
2023/10/15 11:15:26;;;;;;;;;;;;;;;14.40;47.34;100693.66;4994254;27;98609;-66
2023/10/15 11:17:58;;;;;;;;;;;;;;;14.06;47.45;100688.28;4982504;27;98191;-65
2023/10/15 11:20:27;;;;;;;;;;;;;;;13.94;47.46;100677.81;4996614;27;98529;-66
2023/10/15 11:22:54;;;;;;;;;;;;;;;14.07;46.99;100670.09;5011995;27;98575;-66
2023/10/15 11:25:23;;;;;;;;;;;;;;;14.28;46.63;100659.91;4945962;27;98935;-65
2023/10/15 11:27:50;;;;;;;;;;;;;;;14.55;46.24;100662.88;4975195;27;98081;-66
2023/10/15 11:30:18;;;;;;;;;;;;;;;14.60;46.29;100665.53;5010576;27;99981;-66
2023/10/15 11:32:46;;;;;;;;;;;;;;;15.22;45.66;100669.06;4966482;27;98715;-66
2023/10/15 11:35:15;;;;;;;;;;;;;;;15.22;45.67;100665.56;4959696;27;99478;-66
2023/10/15 11:37:44;;;;;;;;;;;;;;;14.93;46.23;100660.22;4994633;27;99868;-66
2023/10/15 11:40:13;;;;;;;;;;;;;;;14.68;46.68;100655.94;4975301;27;98102;-65
2023/10/15 11:42:51;;;;;;;;;;;;;;;14.49;46.39;100655.88;5013443;27;98605;-65
2023/10/15 11:45:25;;;;;;;;;;;;;;;14.43;46.28;100655.13;4985704;27;98264;-66
2023/10/15 11:47:55;;;;;;;;;;;;;;;14.49;46.44;100662.13;4979790;27;98431;-65
2023/10/15 11:50:22;;;;;;;;;;;;;;;14.52;46.16;100655.31;4967218;27;99796;-65
2023/10/15 11:52:52;;;;;;;;;;;;;;;14.21;46.60;100657.50;4996127;27;100623;-66
2023/10/15 11:55:22;;;;;;;;;;;;;;;14.08;46.74;100647.34;4979547;27;103493;-65
2023/10/15 11:57:52;;;;;;;;;;;;;;;14.41;46.60;100637.50;4980168;27;98145;-65
2023/10/15 12:00:42;;;;;;;;;;;;;;;14.52;46.05;100630.09;4981095;27;98918;-66
2023/10/15 12:03:09;;;;;;;;;;;;;;;14.54;46.67;100623.28;4981455;27;98232;-65
2023/10/15 12:05:37;;;;;;;;;;;;;;;14.55;46.56;100624.91;4987560;27;98139;-66
2023/10/15 12:08:04;;;;;;;;;;;;;;;14.80;46.17;100636.53;4951773;27;99529;-66
2023/10/15 12:10:31;;;;;;;;;;;;;;;14.75;46.37;100633.88;4991477;27;98696;-66
2023/10/15 12:12:58;;;;;;;;;;;;;;;14.58;46.75;100628.91;4980408;27;98777;-66
2023/10/15 12:15:30;;;;;;;;;;;;;;;14.37;46.59;100628.34;4980442;27;98229;-67
2023/10/15 12:17:57;;;;;;;;;;;;;;;14.16;46.93;100633.97;4965363;27;98251;-67
2023/10/15 12:20:26;;;;;;;;;;;;;;;13.96;47.05;100631.47;4989137;27;98699;-67
2023/10/15 12:22:56;;;;;;;;;;;;;;;13.85;47.18;100628.03;4978821;27;98622;-67
2023/10/15 12:25:23;;;;;;;;;;;;;;;13.97;46.68;100639.31;4977761;27;98480;-67
2023/10/15 12:27:50;;;;;;;;;;;;;;;14.15;46.62;100626.94;4094088;27;10000705;-66
2023/10/15 12:30:28;;;;;;;;;;;;;;;14.18;46.37;100630.97;4971073;27;99478;-67
2023/10/15 12:33:00;;;;;;;;;;;;;;;14.10;46.62;100621.56;4994193;27;98276;-67
2023/10/15 12:35:27;;;;;;;;;;;;;;;14.16;46.67;100630.47;5005071;27;98672;-66
2023/10/15 12:38:02;;;;;;;;;;;;;;;14.11;46.51;100625.06;4980294;27;98536;-65
2023/10/15 12:40:38;;;;;;;;;;;;;;;13.98;46.60;100629.28;4975425;27;101147;-67
2023/10/15 12:43:09;;;;;;;;;;;;;;;13.88;47.05;100637.53;4991813;27;98198;-68
2023/10/15 12:45:36;;;;;;;;;;;;;;;13.80;46.85;100630.00;4962201;27;98628;-67
2023/10/15 12:48:04;;;;;;;;;;;;;;;13.79;46.63;100631.06;4960053;27;99678;-67
2023/10/15 12:50:32;;;;;;;;;;;;;;;13.79;46.97;100625.66;4978315;27;98131;-68
2023/10/15 12:53:00;;;;;;;;;;;;;;;13.72;46.79;100626.81;4962990;27;98530;-67
2023/10/15 12:55:27;;;;;;;;;;;;;;;13.79;46.64;100621.03;5000788;27;98604;-66
2023/10/15 12:57:55;;;;;;;;;;;;;;;13.84;46.58;100629.16;4996071;27;99462;-67
2023/10/15 13:00:26;;;;;;;;;;;;;;;13.72;46.85;100628.72;4973114;27;99389;-67
2023/10/15 13:02:53;;;;;;;;;;;;;;;13.62;46.77;100636.91;4969305;27;99591;-67
2023/10/15 13:05:24;;;;;;;;;;;;;;;13.55;47.02;100631.00;4995602;27;98333;-67
2023/10/15 13:07:51;;;;;;;;;;;;;;;13.48;46.84;100634.06;5009003;27;98358;-67